createdAt,value
2023-01-11T00:00:03.266Z,1017.06
2023-01-11T00:05:03.457Z,1017.13
2023-01-11T00:10:03.400Z,1017.07
2023-01-11T00:15:03.526Z,1017.01
2023-01-11T00:20:03.268Z,1017.13
2023-01-11T00:25:02.954Z,1017.01
2023-01-11T00:30:02.749Z,1016.81
2023-01-11T00:35:03.501Z,1016.84
2023-01-11T00:40:03.064Z,1016.7
2023-01-11T00:45:03.221Z,1016.61
2023-01-11T00:50:02.959Z,1016.45
2023-01-11T00:55:03.104Z,1016.42
2023-01-11T01:00:03.595Z,1016.33
2023-01-11T01:05:03.499Z,1016.32
2023-01-11T01:10:03.411Z,1016.29
2023-01-11T01:15:03.167Z,1016.26
2023-01-11T01:20:02.776Z,1016.19
2023-01-11T01:25:03.477Z,1016.13
2023-01-11T01:30:03.604Z,1016.24
2023-01-11T01:35:05.700Z,1016.13
2023-01-11T01:40:02.876Z,1016.09
2023-01-11T01:45:03.837Z,1016.18
2023-01-11T01:50:03.596Z,1016.13
2023-01-11T01:55:03.509Z,1015.98
2023-01-11T02:00:03.071Z,1015.98
2023-01-11T02:05:02.742Z,1015.85
2023-01-11T02:10:03.495Z,1015.95
2023-01-11T02:15:02.814Z,1015.78
2023-01-11T02:20:03.514Z,1015.68
2023-01-11T02:25:03.252Z,1015.61
2023-01-11T02:30:03.139Z,1015.64
2023-01-11T02:35:02.858Z,1015.51
2023-01-11T02:40:03.598Z,1015.54
2023-01-11T02:45:03.401Z,1015.51
2023-01-11T02:50:02.937Z,1015.48
2023-01-11T02:55:03.103Z,1015.28
2023-01-11T03:00:02.849Z,1015.13
2023-01-11T03:05:03.809Z,1015.12
2023-01-11T03:10:02.892Z,1015.09
2023-01-11T03:15:03.591Z,1015.07
2023-01-11T03:20:03.334Z,1014.99
2023-01-11T03:25:03.122Z,1014.92
2023-01-11T03:30:03.529Z,1014.85
2023-01-11T03:35:03.352Z,1014.83
2023-01-11T03:40:03.111Z,1014.78
2023-01-11T03:45:03.091Z,1014.85
2023-01-11T03:50:02.845Z,1014.76
2023-01-11T03:55:04.020Z,1014.65
2023-01-11T04:00:03.269Z,1014.58
2023-01-11T04:05:02.931Z,1014.49
2023-01-11T04:10:03.572Z,1014.48
2023-01-11T04:15:03.399Z,1014.45
2023-01-11T04:20:03.225Z,1014.4
2023-01-11T04:25:02.945Z,1014.4
2023-01-11T04:30:02.747Z,1014.36
2023-01-11T04:35:03.531Z,1014.36
2023-01-11T04:40:03.235Z,1014.34
2023-01-11T04:45:03.278Z,1014.19
2023-01-11T04:50:03.275Z,1014.04
2023-01-11T04:55:02.995Z,1013.98
2023-01-11T05:00:03.689Z,1013.98
2023-01-11T05:05:03.298Z,1013.9
2023-01-11T05:10:03.307Z,1013.91
2023-01-11T05:15:02.731Z,1013.82
2023-01-11T05:20:02.827Z,1013.63
2023-01-11T05:25:03.646Z,1013.45
2023-01-11T05:30:03.592Z,1013.34
2023-01-11T05:35:03.186Z,1013.3
2023-01-11T05:40:03.340Z,1013.33
2023-01-11T05:45:03.119Z,1013.33
2023-01-11T05:50:02.718Z,1013.28
2023-01-11T05:55:03.578Z,1013.25
2023-01-11T06:00:03.372Z,1013.3
2023-01-11T06:05:03.130Z,1013.17
2023-01-11T06:10:02.916Z,1013.14
2023-01-11T06:15:03.184Z,1013.16
2023-01-11T06:20:02.843Z,1013.16
2023-01-11T06:25:03.571Z,1013.14
2023-01-11T06:30:03.341Z,1013.1
2023-01-11T06:35:02.992Z,1013.03
2023-01-11T06:40:02.952Z,1013.13
2023-01-11T06:45:03.225Z,1013.1
2023-01-11T06:50:02.874Z,1013.01
2023-01-11T06:55:03.584Z,1013
2023-01-11T07:00:03.333Z,1013.11
2023-01-11T07:05:03.152Z,1013.07
2023-01-11T07:10:03.068Z,1013.23
2023-01-11T07:15:02.990Z,1013.21
2023-01-11T07:20:02.774Z,1013.21
2023-01-11T07:25:03.652Z,1013.27
2023-01-11T07:30:03.388Z,1013.27
2023-01-11T07:35:03.099Z,1013.4
2023-01-11T07:40:02.845Z,1013.47
2023-01-11T07:45:02.753Z,1013.37
2023-01-11T07:50:02.895Z,1013.45
2023-01-11T07:55:03.599Z,1013.32
2023-01-11T08:00:03.362Z,1013.31
2023-01-11T08:05:03.662Z,1013.35
2023-01-11T08:10:02.853Z,1013.28
2023-01-11T08:15:02.713Z,1013.32
2023-01-11T08:20:03.528Z,1013.29
2023-01-11T08:25:03.313Z,1013.28
2023-01-11T08:30:03.081Z,1013.35
2023-01-11T08:35:03.018Z,1013.22
2023-01-11T08:40:02.842Z,1013.24
2023-01-11T08:45:03.580Z,1013.17
2023-01-11T08:50:03.398Z,1013.03
2023-01-11T08:55:03.324Z,1012.94
2023-01-11T09:00:03.041Z,1012.9
2023-01-11T09:05:03.450Z,1012.87
2023-01-11T09:10:03.239Z,1012.85
2023-01-11T09:15:03.425Z,1012.95
2023-01-11T09:20:03.404Z,1012.92
2023-01-11T09:25:02.871Z,1012.89
2023-01-11T09:30:03.653Z,1012.87
2023-01-11T09:35:03.313Z,1012.75
2023-01-11T09:40:03.317Z,1012.72
2023-01-11T09:45:03.039Z,1012.74
2023-01-11T09:50:02.951Z,1012.67
2023-01-11T09:55:03.189Z,1012.63
2023-01-11T10:00:03.445Z,1012.39
2023-01-11T10:05:03.508Z,1012.36
2023-01-11T10:20:03.066Z,1012.33
2023-01-11T10:25:03.503Z,1012.24
2023-01-11T10:30:03.167Z,1012.36
2023-01-11T10:35:02.925Z,1012.26
2023-01-11T10:40:02.771Z,1012.18
2023-01-11T10:45:03.633Z,1012.15
2023-01-11T10:50:07.138Z,1012.22
2023-01-11T10:55:03.004Z,1012.17
2023-01-11T11:00:02.972Z,1012.12
2023-01-11T11:05:02.952Z,1012.08
2023-01-11T11:10:04.181Z,1012
2023-01-11T11:15:03.356Z,1012.02
2023-01-11T11:20:03.229Z,1011.99
2023-01-11T11:25:03.157Z,1011.98
2023-01-11T11:30:02.785Z,1011.77
2023-01-11T11:35:03.475Z,1011.69
2023-01-11T11:40:03.259Z,1011.69
2023-01-11T11:45:03.031Z,1011.62
2023-01-11T11:50:02.814Z,1011.58
2023-01-11T11:55:04.187Z,1011.59
2023-01-11T12:00:03.338Z,1011.62
2023-01-11T12:05:03.325Z,1011.47
2023-01-11T12:10:02.707Z,1011.46
2023-01-11T12:15:03.517Z,1011.44
2023-01-11T12:20:02.797Z,1011.42
2023-01-11T12:25:03.908Z,1011.39
2023-01-11T12:30:03.585Z,1011.36
2023-01-11T12:35:03.466Z,1011.27
2023-01-11T12:40:03.303Z,1011.25
2023-01-11T12:45:03.484Z,1011.24
2023-01-11T12:50:03.190Z,1011.24
2023-01-11T12:55:03.624Z,1011.16
2023-01-11T13:00:02.962Z,1011.18
2023-01-11T13:05:02.678Z,1011.07
2023-01-11T13:10:03.496Z,1011.11
2023-01-11T13:15:03.355Z,1011.12
2023-01-11T13:20:03.099Z,1011.04
2023-01-11T13:25:02.816Z,1011.05
2023-01-11T13:30:03.453Z,1010.94
2023-01-11T13:35:03.302Z,1010.91
2023-01-11T13:40:03.222Z,1010.83
2023-01-11T13:45:03.188Z,1010.93
2023-01-11T13:50:03.108Z,1010.96
2023-01-11T13:55:07.109Z,1011.07
2023-01-11T14:00:03.521Z,1011.15
2023-01-11T14:05:03.577Z,1011.1
2023-01-11T14:10:03.475Z,1011.12
2023-01-11T14:15:03.247Z,1011.13
2023-01-11T14:20:03.109Z,1011.26
2023-01-11T14:25:02.968Z,1011.31
2023-01-11T14:30:02.819Z,1011.4
2023-01-11T14:35:03.521Z,1011.36
2023-01-11T14:40:03.262Z,1011.33
2023-01-11T14:45:03.044Z,1011.51
2023-01-11T14:50:02.835Z,1011.49
2023-01-11T14:55:04.194Z,1011.55
2023-01-11T15:00:03.301Z,1011.59
2023-01-11T15:05:03.182Z,1011.58
2023-01-11T15:10:03.208Z,1011.58
2023-01-11T15:15:02.969Z,1011.6
2023-01-11T15:20:03.339Z,1011.73
2023-01-11T15:25:03.239Z,1011.66
2023-01-11T15:30:02.904Z,1011.73
2023-01-11T15:35:02.637Z,1011.62
2023-01-11T15:40:03.406Z,1011.69
2023-01-11T15:45:03.114Z,1011.8
2023-01-11T15:50:02.935Z,1011.87
2023-01-11T15:55:03.210Z,1011.93
2023-01-11T16:00:02.791Z,1012.09
2023-01-11T16:10:03.817Z,1012.14
2023-01-11T16:15:03.597Z,1012.23
2023-01-11T16:20:03.659Z,1012.34
2023-01-11T16:25:03.513Z,1012.48
2023-01-11T16:35:03.443Z,1012.53
2023-01-11T16:40:03.440Z,1012.58
2023-01-11T16:45:02.981Z,1012.65
2023-01-11T16:50:02.946Z,1012.6
2023-01-11T16:55:02.701Z,1012.62
2023-01-11T17:00:03.618Z,1012.76
2023-01-11T17:05:03.177Z,1012.8
2023-01-11T17:10:03.054Z,1013
2023-01-11T17:15:02.820Z,1012.96
2023-01-11T17:20:03.792Z,1013
2023-01-11T17:25:03.264Z,1012.96
2023-01-11T17:30:02.979Z,1013.01
2023-01-11T17:35:03.550Z,1013.09
2023-01-11T17:40:03.283Z,1013.13
2023-01-11T17:45:03.491Z,1013.33
2023-01-11T17:50:03.261Z,1013.43
2023-01-11T17:55:03.524Z,1013.51
2023-01-11T18:00:03.683Z,1013.48
2023-01-11T18:05:03.450Z,1013.63
2023-01-11T18:10:04.538Z,1013.72
2023-01-11T18:15:03.733Z,1013.83
2023-01-11T18:20:03.211Z,1013.77
2023-01-11T18:25:02.847Z,1013.77
2023-01-11T18:30:02.937Z,1013.87
2023-01-11T18:35:03.771Z,1013.95
2023-01-11T18:40:03.357Z,1014
2023-01-11T18:45:03.081Z,1013.96
2023-01-11T18:50:03.091Z,1013.94
2023-01-11T18:55:04.028Z,1013.91
2023-01-11T19:00:03.533Z,1014.04
2023-01-11T19:05:03.455Z,1014.12
2023-01-11T19:10:03.299Z,1014.22
2023-01-11T19:15:03.455Z,1014.25
2023-01-11T19:20:02.943Z,1014.55
2023-01-11T19:25:02.699Z,1014.57
2023-01-11T19:30:03.455Z,1014.68
2023-01-11T19:35:03.362Z,1014.73
2023-01-11T19:40:03.285Z,1014.72
2023-01-11T19:45:03.023Z,1014.71
2023-01-11T19:50:02.761Z,1014.83
2023-01-11T19:55:03.582Z,1014.84
2023-01-11T20:00:03.542Z,1014.86
2023-01-11T20:05:03.264Z,1014.9
2023-01-11T20:10:02.959Z,1014.86
2023-01-11T20:15:03.178Z,1015.01
2023-01-11T20:20:02.884Z,1015.02
2023-01-11T20:25:02.747Z,1015.14
2023-01-11T20:30:03.058Z,1015.18
2023-01-11T20:35:03.015Z,1015.22
2023-01-11T20:40:02.732Z,1015.31
2023-01-11T20:45:02.788Z,1015.28
2023-01-11T20:50:02.897Z,1015.38
2023-01-11T20:55:08.416Z,1015.4
2023-01-11T21:00:03.123Z,1015.18
2023-01-11T21:05:02.884Z,1015.27
2023-01-11T21:10:03.007Z,1015.29
2023-01-11T21:15:02.733Z,1015.32
2023-01-11T21:20:03.509Z,1015.34
2023-01-11T21:25:03.291Z,1015.35
2023-01-11T21:30:03.478Z,1015.35
2023-01-11T21:35:02.866Z,1015.27
2023-01-11T21:40:02.842Z,1015.17
2023-01-11T21:45:03.219Z,1015.27
2023-01-11T21:50:02.824Z,1015.27
2023-01-11T21:55:03.644Z,1015.25
2023-01-11T22:00:03.326Z,1015.32
2023-01-11T22:05:03.076Z,1015.35
2023-01-11T22:10:06.186Z,1015.35
2023-01-11T22:15:03.143Z,1015.39
2023-01-11T22:20:02.701Z,1015.28
2023-01-11T22:25:03.807Z,1015.38
2023-01-11T22:30:03.202Z,1015.34
2023-01-11T22:35:02.904Z,1015.39
2023-01-11T22:40:03.589Z,1015.54
2023-01-11T22:45:03.368Z,1015.55
2023-01-11T22:50:03.076Z,1015.51
2023-01-11T22:55:03.361Z,1015.59
2023-01-11T23:00:03.533Z,1015.63
2023-01-11T23:05:03.301Z,1015.63
2023-01-11T23:10:03.030Z,1015.47
2023-01-11T23:15:02.942Z,1015.49
2023-01-11T23:20:02.993Z,1015.52
2023-01-11T23:25:03.053Z,1015.58
2023-01-11T23:30:02.737Z,1015.53
2023-01-11T23:35:03.547Z,1015.47
2023-01-11T23:40:03.366Z,1015.35
2023-01-11T23:45:03.255Z,1015.31
2023-01-11T23:50:02.927Z,1015.35
2023-01-11T23:55:02.770Z,1015.45
